Time;durP1;ratioP1;P1;durP2;ratioP2;P2;SDS_P1;SDS_P2;PMS_P1;PMS_P2;Temp;Humidity;BMP_temperature;BMP_pressure;BME280_temperature;BME280_humidity;BME280_pressure;Samples;Min_cycle;Max_cycle;Signal;HPM_P1;HPM_P2
2022/12/26 00:00:21;;;;;;;37.42;16.00;;;;;;;10.35;100.00;100896.28;2614517;36;20041;-61
2022/12/26 00:02:50;;;;;;;32.88;14.95;;;;;;;10.32;100.00;100899.19;2614254;36;20039;-62
2022/12/26 00:05:18;;;;;;;40.53;16.23;;;;;;;10.57;100.00;100895.25;2614980;36;20050;-62
2022/12/26 00:07:47;;;;;;;35.25;15.13;;;;;;;10.42;100.00;100886.66;2614336;36;20034;-62
2022/12/26 00:10:15;;;;;;;40.53;16.05;;;;;;;10.39;100.00;100886.94;2613821;31;20030;-61
2022/12/26 00:12:43;;;;;;;35.13;15.73;;;;;;;10.56;100.00;100898.09;2614636;36;20049;-61
2022/12/26 00:15:14;;;;;;;30.23;13.50;;;;;;;10.40;100.00;100888.66;2614856;31;20042;-62
2022/12/26 00:17:43;;;;;;;33.55;13.75;;;;;;;10.54;100.00;100894.66;2613416;36;20034;-62
2022/12/26 00:20:12;;;;;;;35.85;14.38;;;;;;;10.44;100.00;100894.63;2614095;36;20045;-61
2022/12/26 00:22:40;;;;;;;36.17;14.23;;;;;;;10.45;100.00;100899.88;2612677;36;20038;-61
2022/12/26 00:25:09;;;;;;;38.27;14.20;;;;;;;10.57;100.00;100900.63;2614109;36;20035;-62
2022/12/26 00:27:38;;;;;;;34.25;14.77;;;;;;;10.51;100.00;100901.16;2614168;36;20030;-61
2022/12/26 00:30:08;;;;;;;36.70;14.70;;;;;;;10.54;100.00;100897.34;2614899;31;20042;-62
2022/12/26 00:32:38;;;;;;;38.08;15.95;;;;;;;10.61;100.00;100893.97;2615070;36;20045;-62
2022/12/26 00:35:08;;;;;;;35.38;14.80;;;;;;;10.37;100.00;100896.16;2614896;36;20037;-62
2022/12/26 00:37:36;;;;;;;33.85;14.63;;;;;;;10.46;100.00;100904.25;2613706;36;20034;-61
2022/12/26 00:40:06;;;;;;;31.38;14.77;;;;;;;10.57;100.00;100916.78;2615084;36;20397;-61
2022/12/26 00:42:34;;;;;;;29.73;13.13;;;;;;;10.36;100.00;100913.28;2614205;36;20041;-62
2022/12/26 00:45:03;;;;;;;31.95;13.93;;;;;;;10.45;100.00;100916.03;2615119;36;21242;-61
2022/12/26 00:47:31;;;;;;;32.78;13.13;;;;;;;10.43;100.00;100912.59;2613967;36;20551;-61
2022/12/26 00:50:02;;;;;;;33.97;14.68;;;;;;;10.30;100.00;100911.94;2613695;36;20031;-60
2022/12/26 00:52:30;;;;;;;33.42;13.95;;;;;;;10.34;100.00;100910.72;2613695;36;20034;-61
2022/12/26 00:54:59;;;;;;;32.15;13.63;;;;;;;10.42;100.00;100912.72;2614444;36;20551;-62
2022/12/26 00:57:27;;;;;;;29.10;14.10;;;;;;;10.35;100.00;100912.44;2614464;36;20038;-61
2022/12/26 00:59:55;;;;;;;35.67;16.05;;;;;;;10.18;100.00;100921.91;2614772;36;20041;-61
2022/12/26 01:02:39;;;;;;;30.52;14.93;;;;;;;10.34;100.00;100926.88;2614654;36;20042;-61
2022/12/26 01:05:12;;;;;;;30.60;14.38;;;;;;;10.40;100.00;100926.31;2614346;31;20038;-62
2022/12/26 01:07:42;;;;;;;33.70;14.77;;;;;;;10.29;100.00;100929.91;2615105;31;20039;-61
2022/12/26 01:10:13;;;;;;;37.05;15.07;;;;;;;10.43;100.00;100942.19;2614528;36;20038;-61
2022/12/26 01:12:41;;;;;;;33.00;15.10;;;;;;;10.32;100.00;100929.66;2614723;36;20038;-61
2022/12/26 01:15:10;;;;;;;33.75;15.38;;;;;;;10.30;100.00;100928.06;2614877;31;20034;-61
2022/12/26 01:17:39;;;;;;;37.30;14.60;;;;;;;10.21;100.00;100936.94;2614092;36;20034;-61
2022/12/26 01:20:11;;;;;;;37.00;16.00;;;;;;;10.31;100.00;100940.56;2614700;31;20035;-62
2022/12/26 01:22:40;;;;;;;34.83;15.70;;;;;;;10.25;100.00;100924.94;2614972;36;20038;-61
2022/12/26 01:25:09;;;;;;;34.60;14.45;;;;;;;10.34;100.00;100930.41;2614494;36;20408;-61
2022/12/26 01:27:38;;;;;;;37.33;15.40;;;;;;;10.25;100.00;100939.22;2615009;36;20045;-62
2022/12/26 01:30:08;;;;;;;36.22;14.70;;;;;;;10.28;100.00;100938.13;2614244;36;20482;-61
2022/12/26 01:32:36;;;;;;;35.30;15.77;;;;;;;10.30;100.00;100930.75;2614001;36;20034;-62
2022/12/26 01:35:05;;;;;;;31.70;15.73;;;;;;;10.23;100.00;100930.47;2615094;31;20034;-63
2022/12/26 01:37:36;;;;;;;35.78;15.55;;;;;;;10.17;100.00;100937.22;2614396;36;20061;-62
2022/12/26 01:40:05;;;;;;;33.40;15.77;;;;;;;10.25;100.00;100933.84;2612957;36;20039;-62
2022/12/26 01:42:41;;;;;;;37.08;15.85;;;;;;;10.25;100.00;100927.63;2613968;36;20540;-62
2022/12/26 01:45:23;;;;;;;37.72;16.23;;;;;;;10.24;100.00;100918.69;2614889;36;20031;-62
2022/12/26 01:47:55;;;;;;;39.63;16.45;;;;;;;10.33;100.00;100919.72;2614435;36;20038;-62
2022/12/26 01:50:36;;;;;;;42.33;16.25;;;;;;;10.30;100.00;100917.31;2613531;36;20043;-62
2022/12/26 01:53:14;;;;;;;38.28;16.02;;;;;;;10.31;100.00;100916.34;2614883;36;20035;-62
2022/12/26 01:55:44;;;;;;;38.15;15.52;;;;;;;10.25;100.00;100917.72;2613685;36;20038;-62
2022/12/26 01:58:21;;;;;;;35.38;14.68;;;;;;;10.31;100.00;100919.88;2614545;36;20031;-62
2022/12/26 02:00:50;;;;;;;35.72;15.55;;;;;;;10.32;100.00;100932.34;2614358;36;20031;-62
2022/12/26 02:06:03;;;;;;;35.55;14.50;;;;;;;10.29;100.00;100929.03;2613886;36;20034;-61
2022/12/26 02:08:37;;;;;;;37.15;14.70;;;;;;;10.34;100.00;100937.63;2614372;36;20061;-62
2022/12/26 02:11:12;;;;;;;31.80;13.95;;;;;;;10.41;100.00;100938.81;2614805;36;20035;-62
2022/12/26 02:13:41;;;;;;;31.73;14.15;;;;;;;10.23;100.00;100940.34;2614235;36;20034;-62
2022/12/26 02:16:12;;;;;;;;;;;;;;;10.18;100.00;100938.91;2614452;36;20034;-61
2022/12/26 02:18:41;;;;;;;34.67;14.55;;;;;;;10.34;100.00;100943.00;2611296;36;19959;-62
2022/12/26 02:21:35;;;;;;;38.83;14.95;;;;;;;10.29;100.00;100935.31;2614399;36;20042;-62
2022/12/26 02:24:26;;;;;;;33.70;14.77;;;;;;;10.37;100.00;100928.44;2615441;31;20034;-62
2022/12/26 02:27:12;;;;;;;34.95;14.80;;;;;;;10.23;100.00;100924.22;2614551;36;20563;-62
2022/12/26 02:30:02;;;;;;;38.38;16.05;;;;;;;10.26;100.00;100913.19;2614324;36;20030;-62
2022/12/26 02:32:57;;;;;;;36.75;15.80;;;;;;;10.21;100.00;100912.75;2612551;36;20486;-62
2022/12/26 02:35:39;;;;;;;33.58;14.70;;;;;;;10.26;100.00;100910.47;2613474;36;20034;-62
2022/12/26 02:38:24;;;;;;;30.38;14.55;;;;;;;10.11;100.00;100913.50;2614408;31;20030;-62
2022/12/26 02:41:03;;;;;;;36.35;16.20;;;;;;;10.21;100.00;100910.88;2614759;36;20034;-61
2022/12/26 02:43:41;;;;;;;36.42;15.48;;;;;;;10.27;100.00;100912.19;2614435;36;20040;-62
2022/12/26 02:49:10;;;;;;;31.63;14.20;;;;;;;10.32;100.00;100918.03;2613542;36;20034;-61
2022/12/26 03:13:53;;;;;;;44.28;18.38;;;;;;;10.03;100.00;100899.88;2614953;36;20555;-62
2022/12/26 03:19:10;;;;;;;39.70;17.65;;;;;;;9.90;100.00;100881.25;2614756;31;20435;-61
2022/12/26 03:21:44;;;;;;;43.20;17.50;;;;;;;9.94;100.00;100887.25;2615569;36;20554;-60
2022/12/26 03:24:15;;;;;;;43.88;19.35;;;;;;;9.96;100.00;100896.00;2615321;36;20030;-61
2022/12/26 03:26:48;;;;;;;43.90;18.88;;;;;;;9.85;100.00;100902.31;2615162;36;20065;-61
2022/12/26 03:32:00;;;;;;;43.55;19.38;;;;;;;9.85;100.00;100926.50;2615639;36;20038;-61
2022/12/26 03:34:30;;;;;;;44.25;19.75;;;;;;;9.95;100.00;100921.19;2614809;36;20031;-60
2022/12/26 03:37:30;;;;;;;45.92;19.10;;;;;;;9.92;100.00;100921.44;2615382;36;20045;-61
2022/12/26 04:19:42;;;;;;;33.72;17.60;;;;;;;9.74;100.00;100919.34;2616358;36;20439;-61
2022/12/26 04:44:23;;;;;;;29.10;15.63;;;;;;;9.67;100.00;100918.13;2615541;36;20050;-59
2022/12/26 04:46:53;;;;;;;29.10;15.40;;;;;;;9.70;100.00;100917.91;2615603;36;20035;-61
2022/12/26 04:52:05;;;;;;;28.02;15.48;;;;;;;9.79;100.00;100927.88;2616640;36;20030;-61
2022/12/26 04:54:34;;;;;;;29.48;14.75;;;;;;;9.76;100.00;100924.56;2615958;31;20023;-60
2022/12/26 04:57:02;;;;;;;34.63;16.23;;;;;;;9.63;100.00;100912.19;2616221;36;20026;-60
2022/12/26 04:59:34;;;;;;;26.30;13.70;;;;;;;9.62;100.00;100912.31;2616199;36;20030;-60
2022/12/26 05:10:21;;;;;;;25.27;14.77;;;;;;;9.67;100.00;100901.16;2616662;31;20048;-61
2022/12/26 05:12:50;;;;;;;28.40;14.57;;;;;;;9.71;100.00;100906.16;2615730;36;20057;-60
2022/12/26 05:15:22;;;;;;;26.48;13.93;;;;;;;9.76;100.00;100897.69;2616349;36;20578;-60
2022/12/26 05:29:03;;;;;;;21.05;12.25;;;;;;;9.65;100.00;100904.84;2614470;36;20023;-62
2022/12/26 05:31:34;;;;;;;25.65;14.00;;;;;;;9.70;100.00;100903.59;2615985;36;20042;-60
2022/12/26 05:34:05;;;;;;;27.35;13.05;;;;;;;9.67;100.00;100896.63;2615094;31;20031;-60
2022/12/26 05:36:39;;;;;;;23.48;12.32;;;;;;;9.64;100.00;100902.28;2616273;36;20126;-60
2022/12/26 05:39:07;;;;;;;23.83;11.77;;;;;;;9.61;100.00;100905.22;2615859;36;20038;-60
2022/12/26 05:41:36;;;;;;;20.35;12.02;;;;;;;9.76;100.00;100916.50;2616007;36;20041;-60
2022/12/26 05:44:04;;;;;;;24.93;12.77;;;;;;;9.64;100.00;100918.41;2615340;36;20041;-60
2022/12/26 05:46:35;;;;;;;23.83;12.47;;;;;;;9.67;100.00;100922.66;2615704;36;20299;-60
2022/12/26 05:49:04;;;;;;;23.10;12.65;;;;;;;9.70;100.00;100923.28;2616142;36;20030;-61
2022/12/26 05:51:33;;;;;;;28.17;14.23;;;;;;;9.59;100.00;100912.56;2616691;36;20751;-61
2022/12/26 05:54:01;;;;;;;28.27;14.57;;;;;;;9.58;100.00;100918.91;2616149;36;20034;-60
2022/12/26 05:56:30;;;;;;;26.98;14.40;;;;;;;9.61;100.00;100918.66;2616449;36;20412;-61
2022/12/26 05:59:01;;;;;;;28.93;14.07;;;;;;;9.62;100.00;100913.16;2616769;36;20447;-61
2022/12/26 06:01:30;;;;;;;26.35;13.70;;;;;;;9.71;100.00;100908.00;2615640;36;20038;-60
2022/12/26 06:04:02;;;;;;;28.40;15.23;;;;;;;9.55;100.00;100905.75;2615983;36;20042;-62
2022/12/26 06:06:30;;;;;;;29.50;13.63;;;;;;;9.54;100.00;100906.72;2616430;36;20023;-61
2022/12/26 06:08:59;;;;;;;31.00;14.83;;;;;;;9.59;100.00;100899.13;2615117;36;20062;-60
2022/12/26 06:11:28;;;;;;;25.35;13.75;;;;;;;9.49;100.00;100898.19;2615981;36;20292;-60
2022/12/26 06:13:57;;;;;;;30.55;13.85;;;;;;;9.42;100.00;100906.78;2615964;36;20027;-60
2022/12/26 06:16:26;;;;;;;28.50;14.00;;;;;;;9.39;100.00;100904.34;2615847;31;20034;-60
2022/12/26 06:18:56;;;;;;;26.92;14.32;;;;;;;9.47;100.00;100899.16;2615943;31;20041;-59
2022/12/26 06:21:27;;;;;;;24.23;12.40;;;;;;;9.54;100.00;100888.78;2616197;36;20031;-60
2022/12/26 06:23:55;;;;;;;25.35;13.00;;;;;;;9.47;100.00;100893.81;2614883;36;20057;-60
2022/12/26 06:26:23;;;;;;;25.08;12.05;;;;;;;9.47;100.00;100904.53;2615208;36;20053;-60
2022/12/26 06:28:52;;;;;;;24.00;12.63;;;;;;;9.52;100.00;100900.63;2616489;36;20412;-59
2022/12/26 06:31:22;;;;;;;23.90;13.40;;;;;;;9.41;100.00;100902.38;2614270;36;20034;-59
2022/12/26 06:33:52;;;;;;;23.55;12.25;;;;;;;9.44;100.00;100902.13;2615730;36;20064;-61
2022/12/26 06:36:23;;;;;;;20.20;11.90;;;;;;;9.41;100.00;100913.13;2616309;36;20045;-60
2022/12/26 06:38:55;;;;;;;19.83;11.05;;;;;;;9.42;100.00;100903.22;2615853;36;20034;-59
2022/12/26 06:41:25;;;;;;;21.45;11.70;;;;;;;9.45;100.00;100903.84;2616195;36;20035;-60
2022/12/26 06:43:54;;;;;;;22.65;11.75;;;;;;;9.50;100.00;100899.91;2615390;36;20057;-61
2022/12/26 06:46:25;;;;;;;21.30;11.43;;;;;;;9.43;100.00;100915.69;2615827;36;20061;-59
2022/12/26 06:48:54;;;;;;;18.88;11.00;;;;;;;9.49;100.00;100901.72;2615146;36;20137;-59
2022/12/26 06:51:24;;;;;;;21.10;10.60;;;;;;;9.41;100.00;100906.91;2615780;36;20034;-59
2022/12/26 06:53:56;;;;;;;18.98;10.60;;;;;;;9.46;100.00;100904.69;2614684;31;20547;-59
2022/12/26 06:56:27;;;;;;;18.45;10.05;;;;;;;9.40;100.00;100902.50;2616492;31;20133;-60
2022/12/26 06:58:56;;;;;;;17.35;9.40;;;;;;;9.30;100.00;100910.47;2615940;36;20508;-60
2022/12/26 07:01:24;;;;;;;16.25;9.80;;;;;;;9.33;100.00;100912.91;2615383;31;20039;-61
2022/12/26 07:03:54;;;;;;;19.73;9.88;;;;;;;9.43;100.00;100911.16;2614709;36;20125;-61
2022/12/26 07:06:25;;;;;;;16.05;10.30;;;;;;;9.35;100.00;100910.94;2615189;36;20034;-62
2022/12/26 07:08:59;;;;;;;15.48;9.85;;;;;;;9.39;100.00;100909.72;2615151;36;20038;-60
2022/12/26 07:11:30;;;;;;;16.48;9.15;;;;;;;9.46;100.00;100913.56;2615545;36;20897;-59
2022/12/26 07:13:59;;;;;;;18.80;9.88;;;;;;;9.37;100.00;100900.91;2616003;36;20502;-60
2022/12/26 07:16:28;;;;;;;12.68;8.82;;;;;;;9.45;100.00;100908.34;2615604;36;20042;-60
2022/12/26 07:18:58;;;;;;;14.15;8.20;;;;;;;9.43;100.00;100900.41;2615322;36;20049;-59
2022/12/26 07:21:27;;;;;;;14.85;8.77;;;;;;;9.50;100.00;100899.91;2615575;36;20037;-60
2022/12/26 07:23:58;;;;;;;14.40;7.95;;;;;;;9.46;100.00;100892.09;2614622;36;20035;-61
2022/12/26 07:26:27;;;;;;;17.48;7.97;;;;;;;9.52;100.00;100889.88;2614818;36;20058;-61
2022/12/26 07:28:56;;;;;;;14.93;7.10;;;;;;;9.46;100.00;100892.09;2615135;31;20034;-61
2022/12/26 07:31:26;;;;;;;11.00;6.90;;;;;;;9.54;100.00;100890.59;2613333;36;20034;-60
2022/12/26 07:33:57;;;;;;;12.27;7.43;;;;;;;9.46;100.00;100889.41;2615451;36;20401;-60
2022/12/26 07:36:26;;;;;;;11.57;7.28;;;;;;;9.42;100.00;100893.34;2616940;31;20042;-62
2022/12/26 07:38:54;;;;;;;;;;;;;;;9.57;100.00;100906.47;2615300;36;20034;-61
2022/12/26 07:44:07;;;;;;;11.77;7.13;;;;;;;9.65;100.00;100891.41;2616612;31;20042;-61
2022/12/26 07:46:35;;;;;;;14.05;7.00;;;;;;;9.59;100.00;100891.91;2615696;36;20079;-60
2022/12/26 07:49:05;;;;;;;14.07;7.17;;;;;;;9.77;100.00;100886.81;2616387;36;20427;-61
2022/12/26 07:51:33;;;;;;;14.93;7.28;;;;;;;9.73;100.00;100890.78;2615889;36;20287;-61
2022/12/26 07:54:01;;;;;;;15.43;7.60;;;;;;;9.66;100.00;100894.97;2616782;36;20416;-61
2022/12/26 07:56:32;;;;;;;13.45;7.55;;;;;;;9.72;100.00;100890.91;2615709;36;20030;-61
2022/12/26 07:59:01;;;;;;;12.93;6.43;;;;;;;9.77;100.00;100891.34;2616852;36;20516;-59
2022/12/26 08:01:30;;;;;;;11.57;7.20;;;;;;;9.69;100.00;100889.31;2615785;31;20415;-61
2022/12/26 08:03:58;;;;;;;13.13;6.90;;;;;;;9.63;100.00;100900.59;2616355;36;20035;-62
2022/12/26 08:06:26;;;;;;;13.10;6.78;;;;;;;9.77;100.00;100905.63;2615662;36;20405;-61
2022/12/26 08:08:55;;;;;;;9.38;5.80;;;;;;;9.76;100.00;100897.69;2615901;36;20042;-63
2022/12/26 08:11:25;;;;;;;9.77;6.00;;;;;;;9.78;100.00;100899.28;2616422;36;20034;-60
2022/12/26 08:13:56;;;;;;;13.43;6.78;;;;;;;9.86;100.00;100900.47;2616325;36;20432;-61
2022/12/26 08:16:24;;;;;;;12.30;5.70;;;;;;;9.80;100.00;100902.72;2614826;31;20547;-60
2022/12/26 08:18:53;;;;;;;13.80;5.50;;;;;;;9.81;100.00;100911.63;2616271;36;20038;-62
2022/12/26 08:21:21;;;;;;;10.13;6.10;;;;;;;9.90;100.00;100897.38;2616799;36;20022;-61
2022/12/26 08:23:49;;;;;;;11.43;6.10;;;;;;;9.93;100.00;100912.41;2616175;36;20696;-62
2022/12/26 08:26:21;;;;;;;12.75;6.13;;;;;;;9.88;100.00;100914.63;2615034;36;20027;-64
2022/12/26 08:28:49;;;;;;;8.27;5.43;;;;;;;9.79;100.00;100913.56;2616231;36;20322;-63
2022/12/26 08:31:21;;;;;;;9.68;5.07;;;;;;;9.79;100.00;100922.50;2615401;36;20066;-64
2022/12/26 08:33:50;;;;;;;11.02;5.28;;;;;;;10.01;100.00;100931.41;2615849;36;20035;-61
2022/12/26 08:36:18;;;;;;;13.40;5.63;;;;;;;10.02;100.00;100927.75;2616116;31;20034;-61
2022/12/26 08:38:47;;;;;;;9.43;4.60;;;;;;;10.08;100.00;100932.59;2615917;36;20038;-62
2022/12/26 08:41:16;;;;;;;9.25;4.82;;;;;;;10.15;100.00;100936.47;2615651;31;20518;-63
2022/12/26 08:43:44;;;;;;;10.52;4.22;;;;;;;10.15;100.00;100938.31;2616378;36;20041;-62
2022/12/26 08:46:14;;;;;;;10.20;4.25;;;;;;;10.06;100.00;100939.13;2616071;31;20031;-63
2022/12/26 08:48:45;;;;;;;;;;;;;;;10.16;100.00;100940.03;2616453;31;20126;-62
2022/12/26 08:51:17;;;;;;;6.40;3.38;;;;;;;10.14;100.00;100937.47;2616251;36;20320;-64
2022/12/26 08:53:45;;;;;;;6.72;2.85;;;;;;;10.13;100.00;100954.59;2616313;36;20035;-61
2022/12/26 08:56:16;;;;;;;6.22;3.33;;;;;;;10.24;100.00;100952.81;2615661;36;20034;-62
2022/12/26 08:58:45;;;;;;;4.38;3.25;;;;;;;10.34;100.00;100959.16;2616290;36;20034;-62
2022/12/26 09:01:16;;;;;;;8.65;3.20;;;;;;;10.28;100.00;100962.34;2616085;36;20034;-62
2022/12/26 09:03:47;;;;;;;5.88;3.58;;;;;;;10.25;100.00;100971.50;2615774;36;20127;-62
2022/12/26 09:06:17;;;;;;;9.90;3.72;;;;;;;10.14;100.00;100969.75;2615937;36;20034;-61
2022/12/26 09:08:45;;;;;;;;;;;;;;;10.34;100.00;100988.75;2615952;36;20050;-64
2022/12/26 09:11:15;;;;;;;9.82;2.90;;;;;;;10.36;100.00;100981.38;2615677;36;19947;-61
2022/12/26 09:13:45;;;;;;;5.22;3.20;;;;;;;10.31;100.00;100994.34;2616564;36;20023;-62
2022/12/26 09:16:16;;;;;;;7.03;3.80;;;;;;;10.38;100.00;100982.13;2616012;36;20035;-60
2022/12/26 09:18:48;;;;;;;10.13;3.95;;;;;;;10.40;100.00;100993.59;2615136;36;20042;-61
2022/12/26 09:21:18;;;;;;;6.35;3.13;;;;;;;10.59;100.00;101000.94;2616448;36;20041;-62
2022/12/26 09:23:46;;;;;;;8.02;3.40;;;;;;;10.50;100.00;100989.13;2616054;36;20034;-63
2022/12/26 09:26:16;;;;;;;7.25;2.85;;;;;;;10.61;100.00;100990.03;2615785;36;20030;-62
2022/12/26 09:28:45;;;;;;;6.32;3.17;;;;;;;10.56;100.00;101005.75;2615419;36;20038;-62
2022/12/26 09:31:16;;;;;;;9.82;3.00;;;;;;;10.51;100.00;101024.94;2616419;36;20030;-63
2022/12/26 09:33:47;;;;;;;8.10;3.53;;;;;;;10.41;100.00;101032.97;2615959;31;20560;-62
2022/12/26 09:36:17;;;;;;;7.22;3.20;;;;;;;10.42;100.00;101042.72;2615924;31;20205;-62
2022/12/26 09:38:46;;;;;;;5.13;2.80;;;;;;;10.34;100.00;101054.16;2613883;36;20046;-63
2022/12/26 09:41:29;;;;;;;8.98;2.55;;;;;;;10.29;100.00;101048.28;2615559;36;20030;-62
2022/12/26 09:44:05;;;;;;;7.28;3.15;;;;;;;10.28;100.00;101076.16;2615757;31;20026;-62
2022/12/26 09:46:37;;;;;;;8.20;2.85;;;;;;;10.24;100.00;101112.38;2617105;31;20431;-61
2022/12/26 09:49:15;;;;;;;11.93;2.28;;;;;;;9.50;100.00;101121.09;2616007;36;20030;-63
2022/12/26 09:51:47;;;;;;;7.78;2.15;;;;;;;8.98;100.00;101136.78;2616222;36;20035;-60
2022/12/26 09:54:24;;;;;;;10.05;2.03;;;;;;;8.84;100.00;101148.56;2615498;31;20041;-64
2022/12/26 09:56:54;;;;;;;12.95;2.22;;;;;;;8.88;100.00;101154.59;2614825;36;20023;-62
2022/12/26 09:59:25;;;;;;;18.17;3.83;;;;;;;8.69;100.00;101152.44;2615950;36;20043;-63
2022/12/26 10:01:55;;;;;;;11.77;2.45;;;;;;;8.67;100.00;101168.66;2616021;31;20072;-62
2022/12/26 10:04:28;;;;;;;11.13;2.40;;;;;;;8.70;100.00;101175.59;2615660;31;20038;-63
2022/12/26 10:07:06;;;;;;;11.88;2.03;;;;;;;8.52;100.00;101183.22;2615771;36;20069;-62
2022/12/26 10:09:57;;;;;;;9.82;2.05;;;;;;;8.20;100.00;101178.38;2615235;36;20027;-63
2022/12/26 10:12:39;;;;;;;4.85;1.80;;;;;;;8.17;100.00;101192.00;2615227;36;20035;-63
2022/12/26 10:15:20;;;;;;;12.43;2.30;;;;;;;8.34;100.00;101193.47;2616254;36;20035;-63
2022/12/26 10:17:57;;;;;;;15.90;2.58;;;;;;;8.32;100.00;101198.94;2614702;36;20042;-62
2022/12/26 10:20:36;;;;;;;13.77;2.25;;;;;;;8.25;100.00;101208.41;2616356;36;20393;-63
2022/12/26 10:23:30;;;;;;;8.32;2.35;;;;;;;8.41;100.00;101203.63;2615686;36;20050;-62
2022/12/26 10:26:05;;;;;;;9.10;2.67;;;;;;;8.32;100.00;101201.63;2615806;31;20567;-61
2022/12/26 10:28:39;;;;;;;10.75;2.88;;;;;;;8.50;100.00;101212.00;2615206;36;20022;-61
2022/12/26 10:31:12;;;;;;;10.48;2.60;;;;;;;8.61;100.00;101206.66;2615817;36;20531;-61
2022/12/26 10:33:47;;;;;;;7.63;2.70;;;;;;;8.66;100.00;101201.84;2615705;36;20057;-62
2022/12/26 10:36:28;;;;;;;9.68;3.97;;;;;;;8.47;100.00;101210.41;2615717;36;20146;-62
2022/12/26 10:38:59;;;;;;;6.15;1.83;;;;;;;8.41;100.00;101219.72;2615333;36;20138;-62
2022/12/26 10:41:32;;;;;;;6.32;1.45;;;;;;;8.43;100.00;101227.66;2615937;31;20026;-62
2022/12/26 10:44:01;;;;;;;5.18;1.45;;;;;;;8.39;100.00;101221.66;2615499;36;20035;-63
2022/12/26 10:46:54;;;;;;;11.07;1.77;;;;;;;8.42;100.00;101232.16;2615701;36;20045;-61
2022/12/26 10:49:25;;;;;;;3.55;1.23;;;;;;;8.44;100.00;101236.56;2615669;36;20035;-63
2022/12/26 10:51:58;;;;;;;4.40;1.27;;;;;;;8.50;100.00;101234.31;2616343;36;20435;-61
2022/12/26 10:54:30;;;;;;;5.32;1.50;;;;;;;8.57;100.00;101237.41;2615037;36;20036;-62
2022/12/26 10:57:00;;;;;;;6.90;1.42;;;;;;;8.50;100.00;101247.72;2614936;36;20041;-61
2022/12/26 10:59:42;;;;;;;2.88;0.88;;;;;;;8.42;100.00;101252.75;2615422;36;20030;-61
2022/12/26 11:02:17;;;;;;;5.10;1.20;;;;;;;8.30;100.00;101259.03;2615646;36;20027;-62
2022/12/26 11:05:00;;;;;;;5.60;1.15;;;;;;;8.36;100.00;101272.84;2616185;36;20454;-61
2022/12/26 11:07:35;;;;;;;3.17;1.50;;;;;;;8.44;100.00;101271.44;2615764;31;20030;-61
2022/12/26 11:10:05;;;;;;;6.68;1.50;;;;;;;8.49;100.00;101267.47;2616853;36;20031;-63
2022/12/26 11:12:41;;;;;;;6.65;1.30;;;;;;;8.62;100.00;101278.16;2618055;31;20034;-62
2022/12/26 11:15:21;;;;;;;3.70;1.27;;;;;;;8.76;100.00;101277.16;2617764;36;20045;-62
2022/12/26 11:17:53;;;;;;;5.38;1.00;;;;;;;8.58;100.00;101279.34;2616568;36;20046;-63
2022/12/26 11:20:32;;;;;;;6.07;1.00;;;;;;;8.52;100.00;101286.00;2613990;31;20034;-62
2022/12/26 11:23:26;;;;;;;3.15;0.73;;;;;;;8.35;100.00;101289.06;2616985;36;20042;-61
2022/12/26 11:25:56;;;;;;;2.92;0.82;;;;;;;8.21;100.00;101287.34;2616264;36;20045;-62
2022/12/26 11:28:28;;;;;;;4.25;1.40;;;;;;;8.20;100.00;101293.69;2616975;31;20037;-63
2022/12/26 11:30:57;;;;;;;7.10;1.45;;;;;;;8.28;100.00;101298.50;2617627;36;20446;-61
2022/12/26 11:33:27;;;;;;;;;;;;;;;8.24;100.00;101303.22;2616171;36;20037;-61
2022/12/26 11:36:04;;;;;;;7.28;1.73;;;;;;;8.35;100.00;101306.00;2617577;36;19951;-61
2022/12/26 11:38:43;;;;;;;4.05;1.40;;;;;;;8.20;100.00;101301.72;2617042;36;20031;-61
2022/12/26 11:41:35;;;;;;;5.07;1.88;;;;;;;8.32;100.00;101316.97;2617719;46;20037;-62
2022/12/26 11:44:17;;;;;;;4.43;0.90;;;;;;;8.23;100.00;101317.63;2617377;36;20034;-62
2022/12/26 11:46:49;;;;;;;4.97;1.42;;;;;;;8.31;100.00;101304.50;2616861;36;20042;-61
2022/12/26 11:49:25;;;;;;;5.00;1.70;;;;;;;8.44;100.00;101301.81;2617057;36;20030;-61
2022/12/26 11:51:55;;;;;;;8.07;1.60;;;;;;;8.44;100.00;101311.69;2616687;36;20037;-62
2022/12/26 11:54:29;;;;;;;7.28;1.92;;;;;;;8.56;100.00;101313.50;2617079;36;20034;-63
2022/12/26 11:57:19;;;;;;;4.38;1.42;;;;;;;8.63;100.00;101320.13;2617201;36;20555;-62
2022/12/26 11:59:48;;;;;;;8.68;1.40;;;;;;;8.65;100.00;101325.38;2616936;36;20061;-63
2022/12/26 12:02:20;;;;;;;6.53;1.70;;;;;;;8.59;100.00;101324.84;2617902;31;20022;-62
2022/12/26 12:04:50;;;;;;;9.40;1.90;;;;;;;8.93;100.00;101332.25;2616733;36;20035;-62
2022/12/26 12:07:28;;;;;;;7.68;1.70;;;;;;;8.99;100.00;101331.78;2617055;36;20030;-61
2022/12/26 12:10:08;;;;;;;3.33;1.20;;;;;;;8.94;100.00;101328.59;2616486;36;20616;-61
2022/12/26 12:12:39;;;;;;;;;;;;;;;8.80;100.00;101331.44;2617266;31;20287;-62
2022/12/26 12:15:18;;;;;;;6.93;1.27;;;;;;;8.72;100.00;101330.19;2617082;36;19950;-63
2022/12/26 12:18:04;;;;;;;4.93;1.20;;;;;;;8.55;100.00;101326.06;2616099;36;20042;-62
2022/12/26 12:20:40;;;;;;;3.53;0.98;;;;;;;8.65;100.00;101334.28;2615727;36;20547;-63
2022/12/26 12:23:22;;;;;;;9.88;1.65;;;;;;;8.75;100.00;101340.69;2615676;36;20038;-61
2022/12/26 12:26:06;;;;;;;5.65;1.13;;;;;;;8.77;100.00;101329.84;2615035;36;20034;-61
2022/12/26 12:32:13;;;;;;;5.00;0.90;;;;;;;8.75;100.00;101338.00;2631701;36;21022;-61
2022/12/26 12:35:02;;;;;;;7.68;1.23;;;;;;;8.48;100.00;101337.31;2614863;36;20543;-61
2022/12/26 12:37:35;;;;;;;;;;;;;;;8.58;100.00;101336.56;2615905;31;20045;-63
2022/12/26 12:40:16;;;;;;;5.13;1.30;;;;;;;8.54;100.00;101336.91;2615536;36;19951;-62
2022/12/26 12:42:58;;;;;;;7.90;1.48;;;;;;;8.54;100.00;101339.59;2615471;36;20728;-62
2022/12/26 12:45:31;;;;;;;6.03;0.88;;;;;;;8.39;100.00;101350.41;2615445;36;20038;-62
2022/12/26 12:48:23;;;;;;;6.68;1.63;;;;;;;8.36;100.00;101356.00;2614754;36;20042;-63
2022/12/26 12:50:59;;;;;;;4.45;1.25;;;;;;;8.32;100.00;101365.22;2614608;36;20030;-62
2022/12/26 12:53:50;;;;;;;10.93;1.35;;;;;;;8.34;100.00;101367.81;2615748;36;20038;-62
2022/12/26 12:56:30;;;;;;;4.57;1.10;;;;;;;8.27;100.00;101362.00;2614375;31;20031;-62
2022/12/26 12:59:27;;;;;;;9.90;1.80;;;;;;;8.04;100.00;101366.31;2614819;36;20045;-64
2022/12/26 13:02:01;;;;;;;6.35;1.33;;;;;;;8.02;100.00;101366.44;2615621;36;20034;-63
2022/12/26 13:04:36;;;;;;;9.43;1.90;;;;;;;8.25;100.00;101372.00;2615186;36;20099;-64
2022/12/26 13:07:07;;;;;;;7.05;2.10;;;;;;;8.16;100.00;101361.91;2615905;36;20030;-63
2022/12/26 13:09:43;;;;;;;5.85;2.05;;;;;;;8.06;100.00;101369.75;2615478;36;20030;-61
2022/12/26 13:12:19;;;;;;;6.50;1.95;;;;;;;8.06;100.00;101373.28;2614953;36;20069;-62
2022/12/26 13:14:57;;;;;;;7.15;1.90;;;;;;;8.18;100.00;101374.22;2615452;36;20041;-60
2022/12/26 13:17:31;;;;;;;3.70;1.40;;;;;;;8.07;100.00;101377.69;2613646;36;21429;-61
2022/12/26 13:20:03;;;;;;;5.15;1.85;;;;;;;8.00;100.00;101379.06;2614210;36;20101;-63
2022/12/26 13:25:18;;;;;;;2.78;1.17;;;;;;;7.84;100.00;101386.47;2613513;36;20069;-61
2022/12/26 13:27:50;;;;;;;8.25;2.33;;;;;;;7.82;100.00;101388.41;2612687;36;20416;-62
2022/12/26 13:30:21;;;;;;;5.78;1.38;;;;;;;7.81;100.00;101392.03;2614193;36;20049;-64
2022/12/26 13:32:50;;;;;;;8.85;1.85;;;;;;;7.82;100.00;101393.75;2613879;36;20459;-62
2022/12/26 13:35:53;;;;;;;9.18;2.60;;;;;;;7.81;100.00;101397.38;2614102;36;20041;-61
2022/12/26 13:38:23;;;;;;;5.53;0.93;;;;;;;7.81;100.00;101406.28;2614847;36;20030;-62
2022/12/26 13:40:55;;;;;;;;;;;;;;;7.87;100.00;101413.03;2616235;36;20070;-60
2022/12/26 13:46:39;;;;;;;5.05;1.50;;;;;;;8.06;100.00;101418.00;2615159;36;20042;-61
2022/12/26 13:49:28;;;;;;;6.63;1.83;;;;;;;7.83;100.00;101412.41;2614892;36;20042;-60
2022/12/26 13:52:00;;;;;;;2.90;1.00;;;;;;;7.60;100.00;101411.28;2615641;36;20030;-61